createdAt,value
2023-03-22T00:00:50.408Z,99022.00
2023-03-22T00:01:50.431Z,99020.00
2023-03-22T00:02:50.533Z,99018.00
2023-03-22T00:03:50.731Z,99022.00
2023-03-22T00:04:50.517Z,99019.00
2023-03-22T00:05:50.547Z,99019.00
2023-03-22T00:06:50.517Z,99017.00
2023-03-22T00:07:50.530Z,99019.00
2023-03-22T00:08:50.586Z,99020.00
2023-03-22T00:09:50.581Z,99016.00
2023-03-22T00:10:50.593Z,99016.00
2023-03-22T00:11:50.618Z,99017.00
2023-03-22T00:12:50.645Z,99023.00
2023-03-22T00:13:50.657Z,99018.00
2023-03-22T00:14:50.690Z,99020.00
2023-03-22T00:15:50.760Z,99018.00
2023-03-22T00:16:50.734Z,99019.00
2023-03-22T00:17:50.747Z,99021.00
2023-03-22T00:18:51.204Z,99018.00
2023-03-22T00:19:50.779Z,99017.00
2023-03-22T00:20:50.798Z,99014.00
2023-03-22T00:21:50.852Z,99011.00
2023-03-22T00:22:50.965Z,99011.00
2023-03-22T00:23:50.849Z,99008.00
2023-03-22T00:24:50.864Z,99010.00
2023-03-22T00:25:50.878Z,99010.00
2023-03-22T00:26:50.882Z,99010.00
2023-03-22T00:27:50.905Z,99011.00
2023-03-22T00:28:50.928Z,99014.00
2023-03-22T00:29:50.946Z,99012.00
2023-03-22T00:30:50.966Z,99013.00
2023-03-22T00:31:50.987Z,99010.00
2023-03-22T00:32:50.983Z,99014.00
2023-03-22T00:33:50.999Z,99015.00
2023-03-22T00:34:51.032Z,99014.00
2023-03-22T00:35:51.137Z,99016.00
2023-03-22T00:36:51.070Z,99011.00
2023-03-22T00:37:51.119Z,99014.00
2023-03-22T00:38:51.111Z,99013.00
2023-03-22T00:39:51.122Z,99011.00
2023-03-22T00:40:51.148Z,99010.00
2023-03-22T00:41:51.161Z,99007.00
2023-03-22T00:42:51.185Z,99008.00
2023-03-22T00:43:51.196Z,99003.00
2023-03-22T00:44:51.235Z,99005.00
2023-03-22T00:45:51.261Z,99004.00
2023-03-22T00:46:51.251Z,99005.00
2023-03-22T00:47:51.284Z,99001.00
2023-03-22T00:48:51.282Z,99000.00
2023-03-22T00:49:51.305Z,98997.00
2023-03-22T00:50:51.320Z,99001.00
2023-03-22T00:51:51.339Z,99000.00
2023-03-22T00:52:51.357Z,98995.00
2023-03-22T00:53:51.436Z,98999.00
2023-03-22T00:54:51.488Z,98991.00
2023-03-22T00:55:51.393Z,98991.00
2023-03-22T00:56:51.425Z,98991.00
2023-03-22T00:57:51.395Z,98988.00
2023-03-22T00:58:51.442Z,98991.00
2023-03-22T00:59:51.420Z,98988.00
2023-03-22T01:00:51.514Z,98986.00
2023-03-22T01:01:51.437Z,98989.00
2023-03-22T01:02:51.457Z,98987.00
2023-03-22T01:03:51.604Z,98986.00
2023-03-22T01:04:51.488Z,98982.00
2023-03-22T01:05:51.502Z,98986.00
2023-03-22T01:06:51.528Z,98987.00
2023-03-22T01:07:51.578Z,98986.00
2023-03-22T01:08:51.563Z,98986.00
2023-03-22T01:09:51.574Z,98982.00
2023-03-22T01:10:51.558Z,98982.00
2023-03-22T01:11:51.582Z,98980.00
2023-03-22T01:12:51.603Z,98981.00
2023-03-22T01:13:51.632Z,98981.00
2023-03-22T01:14:51.647Z,98977.00
2023-03-22T01:15:51.660Z,98976.00
2023-03-22T01:16:51.756Z,98977.00
2023-03-22T01:17:51.684Z,98977.00
2023-03-22T01:18:51.706Z,98977.00
2023-03-22T01:19:51.735Z,98979.00
2023-03-22T01:20:51.715Z,98976.00
2023-03-22T01:21:51.730Z,98974.00
2023-03-22T01:22:51.727Z,98972.00
2023-03-22T01:23:51.740Z,98973.00
2023-03-22T01:24:51.791Z,98975.00
2023-03-22T01:25:51.789Z,98975.00
2023-03-22T01:26:51.752Z,98966.00
2023-03-22T01:27:51.778Z,98965.00
2023-03-22T01:28:51.830Z,98965.00
2023-03-22T01:29:51.809Z,98970.00
2023-03-22T01:30:51.871Z,98965.00
2023-03-22T01:31:51.814Z,98962.00
2023-03-22T01:32:51.842Z,98961.00
2023-03-22T01:33:51.874Z,98960.00
2023-03-22T01:34:51.893Z,98959.00
2023-03-22T01:35:52.019Z,98956.00
2023-03-22T01:36:51.920Z,98953.00
2023-03-22T01:37:51.971Z,98956.00
2023-03-22T01:38:51.964Z,98955.00
2023-03-22T01:39:51.975Z,98952.00
2023-03-22T01:40:52.008Z,98948.00
2023-03-22T01:41:52.024Z,98951.00
2023-03-22T01:42:52.019Z,98944.00
2023-03-22T01:43:52.046Z,98948.00
2023-03-22T01:44:52.059Z,98944.00
2023-03-22T01:45:52.140Z,98943.00
2023-03-22T01:46:52.099Z,98948.00
2023-03-22T01:47:52.259Z,98945.00
2023-03-22T01:48:52.187Z,98941.00
2023-03-22T01:49:52.144Z,98942.00
2023-03-22T01:50:52.164Z,98945.00
2023-03-22T01:51:52.197Z,98941.00
2023-03-22T01:52:52.237Z,98943.00
2023-03-22T01:53:52.247Z,98934.00
2023-03-22T01:54:52.260Z,98939.00
2023-03-22T01:55:52.283Z,98940.00
2023-03-22T01:56:52.314Z,98935.00
2023-03-22T01:57:52.341Z,98931.00
2023-03-22T01:58:52.308Z,98932.00
2023-03-22T01:59:52.338Z,98935.00
2023-03-22T02:00:52.353Z,98935.00
2023-03-22T02:01:52.378Z,98934.00
2023-03-22T02:02:52.420Z,98929.00
2023-03-22T02:03:52.416Z,98928.00
2023-03-22T02:04:52.443Z,98928.00
2023-03-22T02:05:52.468Z,98924.00
2023-03-22T02:06:52.481Z,98922.00
2023-03-22T02:07:52.505Z,98926.00
2023-03-22T02:08:52.520Z,98924.00
2023-03-22T02:09:52.566Z,98925.00
2023-03-22T02:10:52.551Z,98923.00
2023-03-22T02:11:52.550Z,98925.00
2023-03-22T02:12:52.516Z,98925.00
2023-03-22T02:13:52.558Z,98927.00
2023-03-22T02:14:52.553Z,98929.00
2023-03-22T02:15:52.585Z,98928.00
2023-03-22T02:16:52.560Z,98930.00
2023-03-22T02:17:52.585Z,98927.00
2023-03-22T02:18:52.590Z,98935.00
2023-03-22T02:19:52.624Z,98932.00
2023-03-22T02:20:52.646Z,98934.00
2023-03-22T02:21:52.656Z,98934.00
2023-03-22T02:22:52.679Z,98935.00
2023-03-22T02:23:52.692Z,98930.00
2023-03-22T02:24:52.706Z,98931.00
2023-03-22T02:25:52.739Z,98928.00
2023-03-22T02:26:52.761Z,98922.00
2023-03-22T02:27:52.789Z,98930.00
2023-03-22T02:28:52.801Z,98927.00
2023-03-22T02:29:52.857Z,98925.00
2023-03-22T02:30:52.872Z,98914.00
2023-03-22T02:31:52.854Z,98913.00
2023-03-22T02:32:52.873Z,98912.00
2023-03-22T02:33:52.872Z,98911.00
2023-03-22T02:34:52.897Z,98909.00
2023-03-22T02:35:53.076Z,98903.00
2023-03-22T02:36:52.904Z,98904.00
2023-03-22T02:37:52.938Z,98904.00
2023-03-22T02:38:52.923Z,98907.00
2023-03-22T02:39:52.902Z,98906.00
2023-03-22T02:40:52.909Z,98902.00
2023-03-22T02:41:52.879Z,98902.00
2023-03-22T02:42:52.905Z,98903.00
2023-03-22T02:43:52.941Z,98906.00
2023-03-22T02:44:53.009Z,98906.00
2023-03-22T02:45:53.014Z,98904.00
2023-03-22T02:46:53.083Z,98903.00
2023-03-22T02:47:53.126Z,98901.00
2023-03-22T02:48:53.267Z,98902.00
2023-03-22T02:49:53.034Z,98903.00
2023-03-22T02:50:53.075Z,98900.00
2023-03-22T02:51:53.080Z,98900.00
2023-03-22T02:52:53.118Z,98900.00
2023-03-22T02:53:53.150Z,98901.00
2023-03-22T02:54:53.170Z,98901.00
2023-03-22T02:55:53.186Z,98902.00
2023-03-22T02:56:53.215Z,98899.00
2023-03-22T02:57:53.268Z,98901.00
2023-03-22T02:58:53.252Z,98900.00
2023-03-22T02:59:53.272Z,98902.00
2023-03-22T03:00:53.312Z,98900.00
2023-03-22T03:01:53.339Z,98898.00
2023-03-22T03:02:53.339Z,98894.00
2023-03-22T03:03:53.320Z,98898.00
2023-03-22T03:04:53.354Z,98896.00
2023-03-22T03:05:53.368Z,98901.00
2023-03-22T03:06:53.360Z,98904.00
2023-03-22T03:07:53.382Z,98902.00
2023-03-22T03:08:53.421Z,98901.00
2023-03-22T03:09:53.406Z,98897.00
2023-03-22T03:10:53.427Z,98899.00
2023-03-22T03:11:53.467Z,98898.00
2023-03-22T03:12:53.459Z,98890.00
2023-03-22T03:13:53.501Z,98900.00
2023-03-22T03:14:53.503Z,98903.00
2023-03-22T03:15:53.547Z,98907.00
2023-03-22T03:16:53.544Z,98902.00
2023-03-22T03:17:53.652Z,98900.00
2023-03-22T03:18:53.605Z,98900.00
2023-03-22T03:19:53.627Z,98900.00
2023-03-22T03:20:53.651Z,98904.00
2023-03-22T03:21:53.902Z,98906.00
2023-03-22T03:22:53.683Z,98901.00
2023-03-22T03:23:53.702Z,98905.00
2023-03-22T03:24:53.681Z,98905.00
2023-03-22T03:25:53.709Z,98911.00
2023-03-22T03:26:53.727Z,98910.00
2023-03-22T03:27:53.748Z,98910.00
2023-03-22T03:28:53.781Z,98906.00
2023-03-22T03:29:53.750Z,98906.00
2023-03-22T03:30:53.778Z,98902.00
2023-03-22T03:31:53.859Z,98906.00
2023-03-22T03:32:53.780Z,98903.00
2023-03-22T03:33:53.842Z,98903.00
2023-03-22T03:34:53.804Z,98905.00
2023-03-22T03:35:53.857Z,98903.00
2023-03-22T03:36:53.834Z,98907.00
2023-03-22T03:37:53.865Z,98911.00
2023-03-22T03:38:53.892Z,98915.00
2023-03-22T03:39:53.870Z,98907.00
2023-03-22T03:40:53.892Z,98912.00
2023-03-22T03:41:53.923Z,98910.00
2023-03-22T03:42:53.944Z,98906.00
2023-03-22T03:43:53.979Z,98916.00
2023-03-22T03:44:54.006Z,98907.00
2023-03-22T03:45:54.046Z,98905.00
2023-03-22T03:46:53.992Z,98909.00
2023-03-22T03:47:54.024Z,98908.00
2023-03-22T03:48:53.997Z,98910.00
2023-03-22T03:49:54.054Z,98911.00
2023-03-22T03:50:54.045Z,98910.00
2023-03-22T03:51:54.010Z,98913.00
2023-03-22T03:52:54.022Z,98917.00
2023-03-22T03:53:54.050Z,98915.00
2023-03-22T03:54:54.067Z,98916.00
2023-03-22T03:55:54.090Z,98917.00
2023-03-22T03:56:54.116Z,98922.00
2023-03-22T03:57:54.140Z,98917.00
2023-03-22T03:58:54.170Z,98915.00
2023-03-22T03:59:54.196Z,98920.00
2023-03-22T04:00:54.219Z,98919.00
2023-03-22T04:01:54.319Z,98922.00
2023-03-22T04:02:54.236Z,98927.00
2023-03-22T04:03:54.260Z,98927.00
2023-03-22T04:04:54.281Z,98928.00
2023-03-22T04:05:54.340Z,98927.00
2023-03-22T04:06:54.308Z,98926.00
2023-03-22T04:07:54.325Z,98924.00
2023-03-22T04:08:54.346Z,98928.00
2023-03-22T04:09:54.373Z,98921.00
2023-03-22T04:10:54.391Z,98920.00
2023-03-22T04:11:54.407Z,98917.00
2023-03-22T04:12:54.418Z,98919.00
2023-03-22T04:13:54.432Z,98915.00
2023-03-22T04:14:54.516Z,98918.00
2023-03-22T04:15:54.436Z,98907.00
2023-03-22T04:16:54.554Z,98909.00
2023-03-22T04:17:54.473Z,98910.00
2023-03-22T04:18:54.490Z,98902.00
2023-03-22T04:19:54.512Z,98904.00
2023-03-22T04:20:54.493Z,98908.00
2023-03-22T04:21:54.546Z,98907.00
2023-03-22T04:22:54.521Z,98911.00
2023-03-22T04:23:54.540Z,98912.00
2023-03-22T04:24:54.577Z,98909.00
2023-03-22T04:25:54.557Z,98909.00
2023-03-22T04:26:54.581Z,98906.00
2023-03-22T04:27:54.602Z,98906.00
2023-03-22T04:28:54.635Z,98903.00
2023-03-22T04:29:54.626Z,98904.00
2023-03-22T04:30:54.668Z,98910.00
2023-03-22T04:31:54.654Z,98909.00
2023-03-22T04:32:54.683Z,98904.00
2023-03-22T04:33:54.692Z,98897.00
2023-03-22T04:34:54.747Z,98908.00
2023-03-22T04:35:54.741Z,98904.00
2023-03-22T04:36:54.726Z,98897.00
2023-03-22T04:37:54.776Z,98896.00
2023-03-22T04:38:54.745Z,98889.00
2023-03-22T04:39:54.789Z,98895.00
2023-03-22T04:40:54.772Z,98891.00
2023-03-22T04:41:54.750Z,98886.00
2023-03-22T04:42:54.781Z,98893.00
2023-03-22T04:43:54.798Z,98888.00
2023-03-22T04:44:54.817Z,98887.00
2023-03-22T04:45:55.176Z,98890.00
2023-03-22T04:46:54.833Z,98887.00
2023-03-22T04:47:54.908Z,98881.00
2023-03-22T04:48:54.896Z,98878.00
2023-03-22T04:49:54.911Z,98880.00
2023-03-22T04:50:54.934Z,98878.00
2023-03-22T04:51:54.977Z,98875.00
2023-03-22T04:52:54.998Z,98872.00
2023-03-22T04:53:55.046Z,98874.00
2023-03-22T04:54:55.012Z,98871.00
2023-03-22T04:55:55.037Z,98871.00
2023-03-22T04:56:55.073Z,98870.00
2023-03-22T04:57:55.098Z,98864.00
2023-03-22T04:58:55.113Z,98866.00
2023-03-22T04:59:55.136Z,98859.00
2023-03-22T05:00:55.171Z,98857.00
2023-03-22T05:01:55.258Z,98852.00
2023-03-22T05:02:55.226Z,98853.00
2023-03-22T05:03:55.207Z,98848.00
2023-03-22T05:04:55.196Z,98845.00
2023-03-22T05:05:55.219Z,98847.00
2023-03-22T05:06:55.200Z,98843.00
2023-03-22T05:07:55.186Z,98843.00
2023-03-22T05:08:55.209Z,98850.00
2023-03-22T05:09:55.255Z,98843.00
2023-03-22T05:10:55.233Z,98843.00
2023-03-22T05:11:55.245Z,98839.00
2023-03-22T05:12:55.269Z,98839.00
2023-03-22T05:13:55.298Z,98839.00
2023-03-22T05:14:55.329Z,98843.00
2023-03-22T05:15:55.394Z,98839.00
2023-03-22T05:16:55.352Z,98842.00
2023-03-22T05:17:55.366Z,98839.00
2023-03-22T05:18:55.389Z,98843.00
2023-03-22T05:19:55.409Z,98845.00
2023-03-22T05:20:55.436Z,98849.00
2023-03-22T05:23:21.324Z,98852.00
2023-03-22T05:28:39.114Z,98853.00
2023-03-22T05:29:39.087Z,98858.00
2023-03-22T05:30:39.430Z,98855.00
2023-03-22T05:31:39.745Z,98858.00
2023-03-22T05:32:39.125Z,98862.00
2023-03-22T05:33:39.179Z,98861.00
2023-03-22T05:34:39.165Z,98864.00
2023-03-22T05:35:39.299Z,98864.00
2023-03-22T05:36:39.192Z,98864.00
2023-03-22T05:37:39.230Z,98863.00
2023-03-22T05:38:39.256Z,98860.00
2023-03-22T05:39:39.281Z,98862.00
2023-03-22T05:40:39.509Z,98860.00
2023-03-22T05:41:39.276Z,98859.00
2023-03-22T05:42:39.302Z,98863.00
2023-03-22T05:43:39.337Z,98862.00
2023-03-22T05:44:39.350Z,98863.00
2023-03-22T05:45:39.349Z,98864.00
2023-03-22T05:46:39.493Z,98864.00
2023-03-22T05:47:39.384Z,98867.00
2023-03-22T05:48:39.367Z,98874.00
2023-03-22T05:49:39.410Z,98874.00
2023-03-22T05:50:39.621Z,98875.00
2023-03-22T05:51:39.409Z,98878.00
2023-03-22T05:52:39.417Z,98875.00
2023-03-22T05:53:39.410Z,98876.00
2023-03-22T05:54:39.437Z,98879.00
2023-03-22T05:55:39.461Z,98880.00
2023-03-22T05:56:39.496Z,98881.00
2023-03-22T05:57:39.489Z,98882.00
2023-03-22T05:58:39.480Z,98882.00
2023-03-22T05:59:39.515Z,98884.00
2023-03-22T06:02:05.483Z,98887.00
2023-03-22T06:03:05.486Z,98886.00
2023-03-22T06:04:05.422Z,98888.00
2023-03-22T06:05:05.453Z,98886.00
2023-03-22T06:06:05.487Z,98890.00
2023-03-22T06:07:05.512Z,98886.00
2023-03-22T06:08:05.537Z,98883.00
2023-03-22T06:09:16.464Z,98882.00
2023-03-22T06:10:05.564Z,98882.00
2023-03-22T06:11:05.550Z,98879.00
2023-03-22T06:12:06.580Z,98876.00
2023-03-22T06:13:05.703Z,98880.00
2023-03-22T06:14:05.633Z,98875.00
2023-03-22T06:15:05.665Z,98881.00
2023-03-22T06:16:05.782Z,98880.00
2023-03-22T06:17:05.704Z,98875.00
2023-03-22T06:18:05.723Z,98880.00
2023-03-22T06:19:05.727Z,98881.00
2023-03-22T06:20:05.709Z,98883.00
2023-03-22T06:21:05.744Z,98879.00
2023-03-22T06:22:05.736Z,98874.00
2023-03-22T06:23:05.718Z,98873.00
2023-03-22T06:24:05.756Z,98874.00
2023-03-22T06:25:05.802Z,98879.00
2023-03-22T06:26:05.797Z,98875.00
2023-03-22T06:27:05.786Z,98879.00
2023-03-22T06:28:08.538Z,98878.00
2023-03-22T06:29:05.806Z,98880.00
2023-03-22T06:30:05.839Z,98877.00
2023-03-22T06:31:05.909Z,98879.00
2023-03-22T06:32:05.891Z,98878.00
2023-03-22T06:33:05.937Z,98883.00
2023-03-22T06:34:05.948Z,98882.00
2023-03-22T06:35:05.949Z,98878.00
2023-03-22T06:36:05.932Z,98876.00
2023-03-22T06:37:05.957Z,98876.00
2023-03-22T06:38:05.996Z,98879.00
2023-03-22T06:39:05.984Z,98873.00
2023-03-22T06:40:07.019Z,98879.00
2023-03-22T06:41:06.046Z,98880.00
2023-03-22T06:42:06.115Z,98881.00
2023-03-22T06:43:07.339Z,98881.00
2023-03-22T06:44:06.114Z,98884.00
2023-03-22T06:45:06.120Z,98875.00
2023-03-22T06:46:06.166Z,98888.00
2023-03-22T06:47:06.143Z,98890.00
2023-03-22T06:48:06.259Z,98892.00
2023-03-22T06:49:06.157Z,98895.00
2023-03-22T06:50:06.249Z,98890.00
2023-03-22T06:51:06.188Z,98892.00
2023-03-22T06:52:06.218Z,98893.00
2023-03-22T06:53:06.204Z,98890.00
2023-03-22T06:54:06.206Z,98892.00
2023-03-22T06:55:06.203Z,98895.00
2023-03-22T06:56:06.209Z,98894.00
2023-03-22T06:57:06.175Z,98890.00
2023-03-22T06:58:06.208Z,98898.00
2023-03-22T06:59:06.274Z,98899.00
2023-03-22T07:00:06.251Z,98899.00
2023-03-22T07:01:06.372Z,98899.00
2023-03-22T07:02:06.303Z,98898.00
2023-03-22T07:03:06.323Z,98903.00
2023-03-22T07:04:06.358Z,98898.00
2023-03-22T07:05:06.321Z,98899.00
2023-03-22T07:06:06.433Z,98897.00
2023-03-22T07:07:06.328Z,98894.00
2023-03-22T07:08:06.348Z,98898.00
2023-03-22T07:09:06.351Z,98895.00
2023-03-22T07:10:06.406Z,98897.00
2023-03-22T07:11:06.417Z,98904.00
2023-03-22T07:12:06.412Z,98898.00
2023-03-22T07:13:06.416Z,98897.00
2023-03-22T07:14:06.470Z,98897.00
2023-03-22T07:15:06.452Z,98897.00
2023-03-22T07:16:06.502Z,98901.00
2023-03-22T07:17:06.466Z,98901.00
2023-03-22T07:18:06.441Z,98898.00
2023-03-22T07:19:07.041Z,98906.00
2023-03-22T07:20:06.498Z,98903.00
2023-03-22T07:21:06.489Z,98901.00
2023-03-22T07:22:06.583Z,98899.00
2023-03-22T07:23:06.489Z,98898.00
2023-03-22T07:24:06.547Z,98896.00
2023-03-22T07:25:06.545Z,98900.00
2023-03-22T07:26:06.548Z,98893.00
2023-03-22T07:27:06.577Z,98897.00
2023-03-22T07:28:06.584Z,98895.00
2023-03-22T07:29:06.649Z,98895.00
2023-03-22T07:30:09.033Z,98893.00
2023-03-22T07:31:06.554Z,98888.00
2023-03-22T07:32:06.648Z,98889.00
2023-03-22T07:33:06.742Z,98884.00
2023-03-22T07:34:06.653Z,98882.00
2023-03-22T07:35:06.653Z,98885.00
2023-03-22T07:36:06.650Z,98875.00
2023-03-22T07:37:06.645Z,98886.00
2023-03-22T07:38:06.715Z,98885.00
2023-03-22T07:39:06.717Z,98884.00
2023-03-22T07:40:06.732Z,98884.00
2023-03-22T07:41:06.719Z,98888.00
2023-03-22T07:42:06.887Z,98885.00
2023-03-22T07:43:06.715Z,98887.00
2023-03-22T07:44:17.243Z,98882.00
2023-03-22T07:45:06.861Z,98884.00
2023-03-22T07:46:06.818Z,98881.00
2023-03-22T07:47:06.746Z,98883.00
2023-03-22T07:48:06.808Z,98883.00
2023-03-22T07:49:06.767Z,98881.00
2023-03-22T07:50:06.755Z,98884.00
2023-03-22T07:51:06.737Z,98886.00
2023-03-22T07:52:06.726Z,98885.00
2023-03-22T07:53:06.725Z,98886.00
2023-03-22T07:54:07.839Z,98887.00
2023-03-22T07:55:06.776Z,98884.00
2023-03-22T07:56:06.777Z,98880.00
2023-03-22T07:57:06.775Z,98881.00
2023-03-22T07:58:06.754Z,98880.00
2023-03-22T07:59:06.938Z,98882.00
2023-03-22T08:00:06.830Z,98884.00
2023-03-22T08:01:06.811Z,98886.00
2023-03-22T08:02:06.903Z,98884.00
2023-03-22T08:03:06.916Z,98882.00
2023-03-22T08:04:06.822Z,98883.00
2023-03-22T08:05:06.820Z,98882.00
2023-03-22T08:06:06.815Z,98879.00
2023-03-22T08:07:06.797Z,98880.00
2023-03-22T08:08:06.846Z,98872.00
2023-03-22T08:09:06.837Z,98881.00
2023-03-22T08:10:06.855Z,98880.00
2023-03-22T08:11:06.832Z,98876.00
2023-03-22T08:12:06.879Z,98879.00
2023-03-22T08:13:06.859Z,98882.00
2023-03-22T08:14:06.885Z,98883.00
2023-03-22T08:15:06.904Z,98886.00
2023-03-22T08:16:06.946Z,98882.00
2023-03-22T08:17:06.924Z,98884.00
2023-03-22T08:18:06.913Z,98886.00
2023-03-22T08:19:06.904Z,98887.00
2023-03-22T08:20:06.887Z,98886.00
2023-03-22T08:21:07.089Z,98886.00
2023-03-22T08:22:06.951Z,98889.00
2023-03-22T08:23:06.970Z,98887.00
2023-03-22T08:24:07.007Z,98895.00
2023-03-22T08:25:07.042Z,98888.00
2023-03-22T08:26:07.066Z,98891.00
2023-03-22T08:27:07.077Z,98898.00
2023-03-22T08:28:07.238Z,98889.00
2023-03-22T08:29:07.087Z,98890.00
2023-03-22T08:30:07.132Z,98884.00
2023-03-22T08:31:07.125Z,98889.00
2023-03-22T08:32:07.232Z,98883.00
2023-03-22T08:33:07.134Z,98887.00
2023-03-22T08:34:07.173Z,98885.00
2023-03-22T08:35:07.210Z,98888.00
2023-03-22T08:36:07.194Z,98893.00
2023-03-22T08:37:07.194Z,98885.00
2023-03-22T08:38:07.212Z,98897.00
2023-03-22T08:39:07.189Z,98888.00
2023-03-22T08:40:07.294Z,98891.00
2023-03-22T08:41:07.291Z,98888.00
2023-03-22T08:42:07.298Z,98884.00
2023-03-22T08:43:07.273Z,98883.00
2023-03-22T08:44:07.265Z,98894.00
2023-03-22T08:45:07.262Z,98897.00
2023-03-22T08:46:07.324Z,98895.00
2023-03-22T08:47:07.268Z,98902.00
2023-03-22T08:48:07.380Z,98892.00
2023-03-22T08:49:07.318Z,98891.00
2023-03-22T08:50:07.306Z,98891.00
2023-03-22T08:51:07.298Z,98888.00
2023-03-22T08:52:07.283Z,98885.00
2023-03-22T08:53:07.278Z,98886.00
2023-03-22T08:54:07.312Z,98885.00
2023-03-22T08:55:07.302Z,98882.00
2023-03-22T08:56:07.298Z,98880.00
2023-03-22T08:57:07.326Z,98881.00
2023-03-22T08:58:07.336Z,98879.00
2023-03-22T08:59:07.346Z,98875.00
2023-03-22T09:00:07.336Z,98874.00
2023-03-22T09:01:07.572Z,98873.00
2023-03-22T09:02:07.662Z,98873.00
2023-03-22T09:03:07.408Z,98869.00
2023-03-22T09:04:10.169Z,98871.00
2023-03-22T09:05:07.440Z,98881.00
2023-03-22T09:06:07.440Z,98869.00
2023-03-22T09:07:07.484Z,98867.00
2023-03-22T09:08:07.443Z,98874.00
2023-03-22T09:09:07.454Z,98871.00
2023-03-22T09:10:07.447Z,98868.00
2023-03-22T09:11:07.463Z,98872.00
2023-03-22T09:12:07.505Z,98869.00
2023-03-22T09:13:07.504Z,98869.00
2023-03-22T09:14:07.524Z,98865.00
2023-03-22T09:15:07.502Z,98858.00
2023-03-22T09:16:07.526Z,98868.00
2023-03-22T09:17:07.485Z,98876.00
2023-03-22T09:18:07.552Z,98860.00
2023-03-22T09:19:07.534Z,98862.00
2023-03-22T09:20:12.888Z,98864.00
2023-03-22T09:21:07.581Z,98865.00
2023-03-22T09:22:07.571Z,98862.00
2023-03-22T09:23:07.584Z,98853.00
2023-03-22T09:24:07.591Z,98858.00
2023-03-22T09:25:07.574Z,98858.00
2023-03-22T09:26:07.571Z,98861.00
2023-03-22T09:27:07.581Z,98868.00
2023-03-22T09:28:07.617Z,98863.00
2023-03-22T09:29:07.601Z,98860.00
2023-03-22T09:30:07.618Z,98858.00
2023-03-22T09:31:07.668Z,98856.00
2023-03-22T09:32:07.630Z,98856.00
2023-03-22T09:33:07.662Z,98851.00
2023-03-22T09:34:07.644Z,98850.00
2023-03-22T09:35:07.677Z,98847.00
2023-03-22T09:36:07.736Z,98848.00
2023-03-22T09:37:07.724Z,98847.00
2023-03-22T09:38:07.716Z,98843.00
2023-03-22T09:39:07.720Z,98848.00
2023-03-22T09:40:07.738Z,98849.00
2023-03-22T09:41:07.754Z,98851.00
2023-03-22T09:42:07.753Z,98846.00
2023-03-22T09:43:07.759Z,98850.00
2023-03-22T09:44:07.739Z,98846.00
2023-03-22T09:45:07.749Z,98846.00
2023-03-22T09:46:07.820Z,98842.00
2023-03-22T09:47:07.741Z,98842.00
2023-03-22T09:48:07.808Z,98844.00
2023-03-22T09:49:07.768Z,98840.00
2023-03-22T09:50:07.806Z,98841.00
2023-03-22T09:51:07.849Z,98841.00
2023-03-22T09:52:07.876Z,98835.00
2023-03-22T09:53:07.844Z,98837.00
2023-03-22T09:54:07.844Z,98844.00
2023-03-22T09:55:07.822Z,98832.00
2023-03-22T09:56:07.814Z,98831.00
2023-03-22T09:57:07.845Z,98828.00
2023-03-22T09:58:07.830Z,98830.00
2023-03-22T09:59:07.820Z,98832.00
2023-03-22T10:00:07.819Z,98828.00
2023-03-22T10:01:07.949Z,98829.00
2023-03-22T10:02:08.044Z,98831.00
2023-03-22T10:03:07.838Z,98829.00
2023-03-22T10:04:07.871Z,98828.00
2023-03-22T10:05:07.855Z,98828.00
2023-03-22T10:06:07.840Z,98827.00
2023-03-22T10:07:07.926Z,98830.00
2023-03-22T10:08:07.859Z,98829.00
2023-03-22T10:09:07.894Z,98830.00
2023-03-22T10:10:07.974Z,98825.00
2023-03-22T10:11:07.910Z,98820.00
2023-03-22T10:12:07.957Z,98820.00
2023-03-22T10:13:07.994Z,98822.00
2023-03-22T10:14:07.975Z,98820.00
2023-03-22T10:15:07.973Z,98817.00
2023-03-22T10:16:08.065Z,98821.00
2023-03-22T10:17:07.961Z,98818.00
2023-03-22T10:18:08.009Z,98813.00
2023-03-22T10:19:07.991Z,98819.00
2023-03-22T10:20:08.017Z,98820.00
2023-03-22T10:21:08.018Z,98821.00
2023-03-22T10:22:08.038Z,98818.00
2023-03-22T10:23:08.009Z,98817.00
2023-03-22T10:24:08.001Z,98814.00
2023-03-22T10:25:08.048Z,98817.00
2023-03-22T10:26:08.066Z,98814.00
2023-03-22T10:27:08.070Z,98815.00
2023-03-22T10:28:08.093Z,98813.00
2023-03-22T10:29:08.061Z,98810.00
2023-03-22T10:30:08.113Z,98813.00
2023-03-22T10:31:08.128Z,98814.00
2023-03-22T10:32:08.091Z,98812.00
2023-03-22T10:33:08.068Z,98814.00
2023-03-22T10:34:08.132Z,98816.00
2023-03-22T10:35:08.161Z,98806.00
2023-03-22T10:36:08.116Z,98804.00
2023-03-22T10:37:08.132Z,98804.00
2023-03-22T10:38:08.173Z,98805.00
2023-03-22T10:39:08.206Z,98807.00
2023-03-22T10:40:08.250Z,98809.00
2023-03-22T10:41:08.228Z,98806.00
2023-03-22T10:42:08.341Z,98810.00
2023-03-22T10:43:08.284Z,98806.00
2023-03-22T10:44:08.309Z,98809.00
2023-03-22T10:45:08.320Z,98807.00
2023-03-22T10:46:08.302Z,98803.00
2023-03-22T10:47:08.517Z,98808.00
2023-03-22T10:48:08.346Z,98806.00
2023-03-22T10:49:08.295Z,98806.00
2023-03-22T10:50:08.360Z,98805.00
2023-03-22T10:51:08.364Z,98803.00
2023-03-22T10:52:08.372Z,98802.00
2023-03-22T10:53:08.372Z,98799.00
2023-03-22T10:54:08.363Z,98797.00
2023-03-22T10:55:08.388Z,98801.00
2023-03-22T10:56:08.388Z,98804.00
2023-03-22T10:57:08.472Z,98801.00
2023-03-22T10:58:08.418Z,98808.00
2023-03-22T10:59:08.444Z,98800.00
2023-03-22T11:00:08.475Z,98800.00
2023-03-22T11:01:08.651Z,98801.00
2023-03-22T11:02:08.623Z,98798.00
2023-03-22T11:03:08.661Z,98799.00
2023-03-22T11:04:08.572Z,98790.00
2023-03-22T11:05:08.521Z,98790.00
2023-03-22T11:06:08.558Z,98790.00
2023-03-22T11:07:08.499Z,98790.00
2023-03-22T11:08:08.533Z,98788.00
2023-03-22T11:09:08.513Z,98795.00
2023-03-22T11:10:08.560Z,98794.00
2023-03-22T11:11:08.581Z,98796.00
2023-03-22T11:12:08.585Z,98791.00
2023-03-22T11:13:08.581Z,98800.00
2023-03-22T11:14:08.569Z,98802.00
2023-03-22T11:15:08.623Z,98792.00
2023-03-22T11:16:08.695Z,98788.00
2023-03-22T11:17:08.624Z,98788.00
2023-03-22T11:18:08.661Z,98792.00
2023-03-22T11:19:08.642Z,98779.00
2023-03-22T11:20:08.755Z,98792.00
2023-03-22T11:21:08.664Z,98794.00
2023-03-22T11:22:08.726Z,98803.00
2023-03-22T11:23:08.733Z,98789.00
2023-03-22T11:24:08.749Z,98784.00
2023-03-22T11:25:08.793Z,98786.00
2023-03-22T11:26:08.814Z,98787.00
2023-03-22T11:27:08.841Z,98780.00
2023-03-22T11:28:08.900Z,98779.00
2023-03-22T11:29:08.901Z,98773.00
2023-03-22T11:30:09.006Z,98771.00
2023-03-22T11:31:08.963Z,98773.00
2023-03-22T11:32:09.079Z,98771.00
2023-03-22T11:33:09.101Z,98759.00
2023-03-22T11:34:09.044Z,98765.00
2023-03-22T11:35:08.988Z,98759.00
2023-03-22T11:36:09.135Z,98762.00
2023-03-22T11:37:08.983Z,98763.00
2023-03-22T11:38:08.992Z,98762.00
2023-03-22T11:39:09.052Z,98759.00
2023-03-22T11:40:08.984Z,98756.00
2023-03-22T11:41:08.984Z,98756.00
2023-03-22T11:42:08.972Z,98759.00
2023-03-22T11:43:08.970Z,98756.00
2023-03-22T11:44:08.966Z,98756.00
2023-03-22T11:45:09.096Z,98757.00
2023-03-22T11:46:09.033Z,98758.00
2023-03-22T11:47:08.968Z,98747.00
2023-03-22T11:48:09.085Z,98750.00
2023-03-22T11:49:09.120Z,98753.00
2023-03-22T11:50:10.505Z,98751.00
2023-03-22T11:51:09.132Z,98737.00
2023-03-22T11:52:09.026Z,98742.00